THY65Y LTFM-LBSF
Flight info
| Callsign | THY65Y |
|---|---|
| Flight time | 0h 48m |
| Altitude | 28000 |
| Route | VADEN1D/35L VADEN DCT DEDIN |
| Aircraft | B77W/H-SDE1E2E3FGHIJ2J3J4J5M1RWXY/LB1D1 |
Departure
| Time | 2026-05-04 12:14 |
|---|---|
| Airport | İstanbul Airport (LTFM) |
Arrival
| Time | 2026-05-04 13:03 |
|---|---|
| Airport | Sofia Airport (LBSF) |
| Time | Latitude | Longitude | Altitude | Speed | Heading |
|---|---|---|---|---|---|
| 2026-05-04 11:40 | 41.26306 | 28.73613 | 318 ft | 0 kts | 71° |
| 2026-05-04 12:06 | 41.26303 | 28.73602 | 317 ft | 2 kts | 71° |
| 2026-05-04 12:07 | 41.26297 | 28.73581 | 317 ft | 2 kts | 71° |
| 2026-05-04 12:07 | 41.26292 | 28.73560 | 317 ft | 2 kts | 70° |
| 2026-05-04 12:07 | 41.26286 | 28.73539 | 316 ft | 2 kts | 70° |
| 2026-05-04 12:07 | 41.26283 | 28.73518 | 317 ft | 2 kts | 97° |
| 2026-05-04 12:08 | 41.26288 | 28.73498 | 316 ft | 2 kts | 131° |
| 2026-05-04 12:08 | 41.26299 | 28.73485 | 318 ft | 1 kts | 155° |
| 2026-05-04 12:08 | 41.26301 | 28.73484 | 317 ft | 0 kts | 157° |
| 2026-05-04 12:11 | 41.26287 | 28.73490 | 318 ft | 0 kts | 162° |
| 2026-05-04 12:11 | 41.26235 | 28.73476 | 318 ft | 11 kts | 226° |
| 2026-05-04 12:12 | 41.26220 | 28.73375 | 318 ft | 11 kts | 265° |
| 2026-05-04 12:12 | 41.26218 | 28.73260 | 318 ft | 18 kts | 270° |
| 2026-05-04 12:12 | 41.26216 | 28.73022 | 317 ft | 27 kts | 269° |
| 2026-05-04 12:12 | 41.26214 | 28.72776 | 319 ft | 27 kts | 269° |
| 2026-05-04 12:13 | 41.26213 | 28.72603 | 318 ft | 11 kts | 269° |
| 2026-05-04 12:14 | 41.29960 | 28.72498 | 2205 ft | 160 kts | 360° |
| 2026-05-04 12:15 | 41.31089 | 28.72505 | 2976 ft | 173 kts | 359° |
| 2026-05-04 12:15 | 41.32401 | 28.72499 | 3306 ft | 207 kts | 360° |
| 2026-05-04 12:15 | 41.33930 | 28.72299 | 3674 ft | 231 kts | 339° |
| 2026-05-04 12:15 | 41.35176 | 28.70902 | 4564 ft | 243 kts | 309° |
| 2026-05-04 12:16 | 41.36115 | 28.68997 | 5443 ft | 250 kts | 307° |
| 2026-05-04 12:16 | 41.37064 | 28.67053 | 6501 ft | 250 kts | 307° |
| 2026-05-04 12:16 | 41.38011 | 28.65104 | 7520 ft | 251 kts | 308° |
| 2026-05-04 12:16 | 41.38965 | 28.63138 | 8485 ft | 255 kts | 308° |
| 2026-05-04 12:17 | 41.39936 | 28.61138 | 9445 ft | 259 kts | 308° |
| 2026-05-04 12:17 | 41.40588 | 28.59796 | 10075 ft | 262 kts | 308° |
| 2026-05-04 12:17 | 41.41605 | 28.57709 | 10647 ft | 280 kts | 309° |
| 2026-05-04 12:17 | 41.42736 | 28.55410 | 10861 ft | 312 kts | 308° |
| 2026-05-04 12:18 | 41.43971 | 28.52889 | 11321 ft | 334 kts | 308° |
| 2026-05-04 12:18 | 41.45261 | 28.50241 | 12174 ft | 346 kts | 309° |
| 2026-05-04 12:18 | 41.46583 | 28.47516 | 13223 ft | 354 kts | 309° |
| 2026-05-04 12:18 | 41.47934 | 28.44728 | 14253 ft | 362 kts | 309° |
| 2026-05-04 12:19 | 41.49314 | 28.41883 | 15240 ft | 368 kts | 309° |
| 2026-05-04 12:19 | 41.50714 | 28.38995 | 16229 ft | 374 kts | 309° |
| 2026-05-04 12:19 | 41.52142 | 28.36047 | 17199 ft | 382 kts | 308° |
| 2026-05-04 12:19 | 41.53603 | 28.33033 | 18151 ft | 390 kts | 308° |
| 2026-05-04 12:20 | 41.55089 | 28.29961 | 18997 ft | 397 kts | 308° |
| 2026-05-04 12:20 | 41.56597 | 28.26841 | 19844 ft | 403 kts | 308° |
| 2026-05-04 12:20 | 41.58130 | 28.23667 | 20688 ft | 410 kts | 308° |
| 2026-05-04 12:20 | 41.59688 | 28.20440 | 21496 ft | 416 kts | 308° |
| 2026-05-04 12:21 | 41.61138 | 28.17432 | 22236 ft | 423 kts | 308° |
| 2026-05-04 12:21 | 41.62744 | 28.14100 | 23037 ft | 429 kts | 308° |
| 2026-05-04 12:21 | 41.64348 | 28.10765 | 23804 ft | 433 kts | 308° |
| 2026-05-04 12:21 | 41.65973 | 28.07379 | 24058 ft | 432 kts | 308° |
| 2026-05-04 12:22 | 41.67598 | 28.03991 | 24029 ft | 433 kts | 308° |
| 2026-05-04 12:22 | 41.69223 | 28.00597 | 24031 ft | 433 kts | 308° |
| 2026-05-04 12:22 | 41.70846 | 27.97208 | 24041 ft | 433 kts | 308° |
| 2026-05-04 12:22 | 41.72469 | 27.93814 | 24030 ft | 433 kts | 308° |
| 2026-05-04 12:23 | 41.74096 | 27.90412 | 24033 ft | 433 kts | 308° |
| 2026-05-04 12:23 | 41.75717 | 27.87017 | 24034 ft | 433 kts | 308° |
| 2026-05-04 12:23 | 41.77342 | 27.83611 | 24037 ft | 435 kts | 308° |
| 2026-05-04 12:23 | 41.78978 | 27.80180 | 24705 ft | 437 kts | 307° |
| 2026-05-04 12:24 | 41.80604 | 27.76761 | 25710 ft | 433 kts | 307° |
| 2026-05-04 12:24 | 41.82216 | 27.73366 | 26763 ft | 429 kts | 307° |
| 2026-05-04 12:24 | 41.83816 | 27.69996 | 27632 ft | 430 kts | 307° |
| 2026-05-04 12:24 | 41.85414 | 27.66625 | 28053 ft | 428 kts | 307° |
| 2026-05-04 12:25 | 41.88629 | 27.59843 | 28033 ft | 430 kts | 307° |
| 2026-05-04 12:25 | 41.91832 | 27.53063 | 28029 ft | 430 kts | 307° |
| 2026-05-04 12:26 | 41.95028 | 27.46281 | 28030 ft | 430 kts | 307° |
| 2026-05-04 12:26 | 41.98222 | 27.39491 | 28029 ft | 430 kts | 307° |
| 2026-05-04 12:27 | 42.01412 | 27.32693 | 28030 ft | 430 kts | 307° |
| 2026-05-04 12:27 | 42.04600 | 27.25877 | 28036 ft | 431 kts | 306° |
| 2026-05-04 12:28 | 42.07132 | 27.18559 | 28029 ft | 439 kts | 292° |
| 2026-05-04 12:28 | 42.08713 | 27.10588 | 28042 ft | 442 kts | 287° |
| 2026-05-04 12:29 | 42.10126 | 27.02531 | 28033 ft | 442 kts | 286° |
| 2026-05-04 12:29 | 42.11547 | 26.94479 | 28031 ft | 442 kts | 287° |
| 2026-05-04 12:30 | 42.12986 | 26.86431 | 28036 ft | 441 kts | 287° |
| 2026-05-04 12:30 | 42.14425 | 26.78415 | 28037 ft | 440 kts | 286° |
| 2026-05-04 12:31 | 42.15859 | 26.70406 | 28040 ft | 439 kts | 286° |
| 2026-05-04 12:31 | 42.17285 | 26.62404 | 28042 ft | 439 kts | 286° |
| 2026-05-04 12:32 | 42.19412 | 26.50395 | 28044 ft | 438 kts | 286° |
| 2026-05-04 12:33 | 42.20822 | 26.42395 | 28053 ft | 439 kts | 286° |
| 2026-05-04 12:33 | 42.22227 | 26.34384 | 28046 ft | 439 kts | 285° |
| 2026-05-04 12:34 | 42.23625 | 26.26374 | 28045 ft | 438 kts | 285° |
| 2026-05-04 12:34 | 42.25017 | 26.18367 | 28044 ft | 438 kts | 285° |
| 2026-05-04 12:35 | 42.26395 | 26.10404 | 28055 ft | 438 kts | 285° |
| 2026-05-04 12:35 | 42.27774 | 26.02394 | 28051 ft | 438 kts | 285° |
| 2026-05-04 12:36 | 42.29150 | 25.94376 | 28049 ft | 439 kts | 285° |
| 2026-05-04 12:36 | 42.30522 | 25.86342 | 28046 ft | 438 kts | 285° |
| 2026-05-04 12:37 | 42.31886 | 25.78320 | 28048 ft | 438 kts | 285° |
| 2026-05-04 12:37 | 42.33246 | 25.70280 | 28052 ft | 438 kts | 284° |
| 2026-05-04 12:38 | 42.34600 | 25.62243 | 28050 ft | 438 kts | 284° |
| 2026-05-04 12:38 | 42.35947 | 25.54209 | 28050 ft | 438 kts | 284° |
| 2026-05-04 12:39 | 42.37289 | 25.46167 | 28050 ft | 439 kts | 284° |
| 2026-05-04 12:39 | 42.38627 | 25.38114 | 28049 ft | 439 kts | 284° |
| 2026-05-04 12:40 | 42.39958 | 25.30065 | 28045 ft | 439 kts | 284° |
| 2026-05-04 12:40 | 42.41285 | 25.22000 | 28052 ft | 439 kts | 284° |
| 2026-05-04 12:41 | 42.42608 | 25.13925 | 28053 ft | 439 kts | 284° |
| 2026-05-04 12:41 | 42.43925 | 25.05847 | 28052 ft | 439 kts | 283° |
| 2026-05-04 12:42 | 42.45236 | 24.97763 | 28067 ft | 439 kts | 283° |
| 2026-05-04 12:42 | 42.46540 | 24.89693 | 28065 ft | 439 kts | 283° |
| 2026-05-04 12:43 | 42.47830 | 24.81669 | 28071 ft | 438 kts | 283° |
| 2026-05-04 12:43 | 42.49128 | 24.73547 | 28079 ft | 438 kts | 283° |
| 2026-05-04 12:44 | 42.50394 | 24.65593 | 28061 ft | 427 kts | 283° |
| 2026-05-04 12:44 | 42.51011 | 24.61705 | 27980 ft | 416 kts | 283° |
| 2026-05-04 12:44 | 42.51611 | 24.57911 | 27730 ft | 409 kts | 283° |
| 2026-05-04 12:44 | 42.52200 | 24.54181 | 27337 ft | 397 kts | 283° |
| 2026-05-04 12:45 | 42.52767 | 24.50577 | 26480 ft | 388 kts | 283° |
| 2026-05-04 12:45 | 42.53326 | 24.47016 | 25591 ft | 383 kts | 284° |
| 2026-05-04 12:45 | 42.53878 | 24.43503 | 25275 ft | 379 kts | 284° |
| 2026-05-04 12:45 | 42.54423 | 24.40021 | 24882 ft | 377 kts | 284° |
| 2026-05-04 12:46 | 42.54967 | 24.36547 | 24496 ft | 376 kts | 284° |
| 2026-05-04 12:46 | 42.55506 | 24.33086 | 24113 ft | 374 kts | 284° |
| 2026-05-04 12:46 | 42.56043 | 24.29640 | 23738 ft | 373 kts | 284° |
| 2026-05-04 12:46 | 42.56579 | 24.26194 | 23288 ft | 372 kts | 284° |
| 2026-05-04 12:47 | 42.57109 | 24.22773 | 22871 ft | 369 kts | 284° |
| 2026-05-04 12:47 | 42.57633 | 24.19378 | 22456 ft | 367 kts | 284° |
| 2026-05-04 12:47 | 42.58153 | 24.16006 | 22082 ft | 363 kts | 284° |
| 2026-05-04 12:47 | 42.58668 | 24.12670 | 21702 ft | 360 kts | 284° |
| 2026-05-04 12:48 | 42.59124 | 24.09347 | 21329 ft | 358 kts | 279° |
| 2026-05-04 12:48 | 42.59298 | 24.05973 | 20952 ft | 357 kts | 273° |
| 2026-05-04 12:48 | 42.59188 | 24.02619 | 20557 ft | 356 kts | 269° |
| 2026-05-04 12:48 | 42.58998 | 23.99262 | 20131 ft | 356 kts | 268° |
| 2026-05-04 12:49 | 42.58810 | 23.95924 | 19797 ft | 352 kts | 269° |
| 2026-05-04 12:49 | 42.58637 | 23.92660 | 19460 ft | 350 kts | 269° |
| 2026-05-04 12:49 | 42.58471 | 23.89388 | 19117 ft | 347 kts | 270° |
| 2026-05-04 12:49 | 42.58482 | 23.86134 | 18740 ft | 343 kts | 277° |
| 2026-05-04 12:50 | 42.58687 | 23.82922 | 18362 ft | 340 kts | 278° |
| 2026-05-04 12:50 | 42.58904 | 23.79737 | 17946 ft | 339 kts | 278° |
| 2026-05-04 12:50 | 42.59117 | 23.76548 | 17496 ft | 339 kts | 278° |
| 2026-05-04 12:50 | 42.59325 | 23.73364 | 17058 ft | 338 kts | 278° |
| 2026-05-04 12:51 | 42.59530 | 23.70178 | 16644 ft | 338 kts | 278° |
| 2026-05-04 12:51 | 42.59731 | 23.67010 | 16243 ft | 337 kts | 278° |
| 2026-05-04 12:51 | 42.59929 | 23.63842 | 15839 ft | 336 kts | 278° |
| 2026-05-04 12:51 | 42.60126 | 23.60686 | 15453 ft | 336 kts | 278° |
| 2026-05-04 12:52 | 42.60321 | 23.57527 | 15081 ft | 335 kts | 278° |
| 2026-05-04 12:52 | 42.60513 | 23.54382 | 14710 ft | 334 kts | 278° |
| 2026-05-04 12:52 | 42.60705 | 23.51246 | 14347 ft | 333 kts | 278° |
| 2026-05-04 12:52 | 42.60898 | 23.48113 | 13996 ft | 333 kts | 277° |
| 2026-05-04 12:53 | 42.61088 | 23.44988 | 13624 ft | 332 kts | 277° |
| 2026-05-04 12:53 | 42.61273 | 23.41890 | 13365 ft | 327 kts | 277° |
| 2026-05-04 12:53 | 42.61456 | 23.38826 | 13002 ft | 326 kts | 277° |
| 2026-05-04 12:53 | 42.61642 | 23.35743 | 12555 ft | 327 kts | 277° |
| 2026-05-04 12:54 | 42.61825 | 23.32654 | 12120 ft | 329 kts | 277° |
| 2026-05-04 12:54 | 42.62009 | 23.29546 | 11692 ft | 332 kts | 277° |
| 2026-05-04 12:54 | 42.62194 | 23.26419 | 11262 ft | 334 kts | 277° |
| 2026-05-04 12:54 | 42.62376 | 23.23296 | 10725 ft | 325 kts | 277° |
| 2026-05-04 12:55 | 42.62544 | 23.20360 | 10253 ft | 307 kts | 277° |
| 2026-05-04 12:55 | 42.62708 | 23.17511 | 9835 ft | 291 kts | 277° |
| 2026-05-04 12:55 | 42.62861 | 23.14871 | 9411 ft | 278 kts | 278° |
| 2026-05-04 12:55 | 42.63006 | 23.12306 | 9057 ft | 268 kts | 278° |
| 2026-05-04 12:56 | 42.63157 | 23.09723 | 8735 ft | 285 kts | 278° |
| 2026-05-04 12:56 | 42.63325 | 23.06959 | 8344 ft | 299 kts | 278° |
| 2026-05-04 12:56 | 42.63877 | 23.04330 | 8124 ft | 285 kts | 304° |
| 2026-05-04 12:56 | 42.65167 | 23.02453 | 7792 ft | 262 kts | 331° |
| 2026-05-04 12:57 | 42.66809 | 23.01574 | 7045 ft | 253 kts | 356° |
| 2026-05-04 12:57 | 42.68557 | 23.01755 | 6496 ft | 250 kts | 19° |
| 2026-05-04 12:57 | 42.70039 | 23.02738 | 6270 ft | 226 kts | 35° |
| 2026-05-04 12:57 | 42.71160 | 23.04154 | 6084 ft | 218 kts | 59° |
| 2026-05-04 12:58 | 42.71576 | 23.06087 | 6075 ft | 214 kts | 84° |
| 2026-05-04 12:58 | 42.71610 | 23.08099 | 6069 ft | 216 kts | 88° |
| 2026-05-04 12:58 | 42.71551 | 23.10145 | 6063 ft | 219 kts | 90° |
| 2026-05-04 12:58 | 42.71441 | 23.12255 | 5782 ft | 226 kts | 91° |
| 2026-05-04 12:59 | 42.71306 | 23.14381 | 5472 ft | 222 kts | 91° |
| 2026-05-04 12:59 | 42.71180 | 23.16430 | 5193 ft | 212 kts | 91° |
| 2026-05-04 12:59 | 42.71062 | 23.18390 | 4951 ft | 206 kts | 91° |
| 2026-05-04 12:59 | 42.70943 | 23.20346 | 4653 ft | 208 kts | 90° |
| 2026-05-04 13:00 | 42.70826 | 23.22304 | 4377 ft | 208 kts | 92° |
| 2026-05-04 13:00 | 42.70708 | 23.24248 | 4093 ft | 207 kts | 91° |
| 2026-05-04 13:00 | 42.70592 | 23.26150 | 3835 ft | 195 kts | 91° |
| 2026-05-04 13:00 | 42.70483 | 23.27921 | 3546 ft | 180 kts | 90° |
| 2026-05-04 13:01 | 42.70388 | 23.29497 | 3316 ft | 157 kts | 91° |
| 2026-05-04 13:01 | 42.70304 | 23.30900 | 3122 ft | 144 kts | 91° |
| 2026-05-04 13:01 | 42.70222 | 23.32288 | 2949 ft | 151 kts | 94° |
| 2026-05-04 13:01 | 42.70134 | 23.33748 | 2717 ft | 155 kts | 94° |
| 2026-05-04 13:02 | 42.70047 | 23.35155 | 2509 ft | 145 kts | 95° |
| 2026-05-04 13:02 | 42.69965 | 23.36533 | 2309 ft | 147 kts | 92° |
| 2026-05-04 13:02 | 42.69909 | 23.37433 | 2177 ft | 142 kts | 94° |
| 2026-05-04 13:02 | 42.69822 | 23.38796 | 1984 ft | 147 kts | 92° |
| 2026-05-04 13:03 | 42.69714 | 23.40617 | 1755 ft | 143 kts | 93° |
| 2026-05-04 13:03 | 42.69646 | 23.41795 | 1756 ft | 87 kts | 95° |
| 2026-05-04 13:03 | 42.69611 | 23.42330 | 1751 ft | 33 kts | 99° |
| 2026-05-04 13:03 | 42.69576 | 23.42530 | 1750 ft | 31 kts | 111° |
| 2026-05-04 13:04 | 42.69533 | 23.42641 | 1748 ft | 0 kts | 112° |
| 2026-05-04 13:04 | 42.69482 | 23.42735 | 1748 ft | 20 kts | 142° |
| 2026-05-04 13:04 | 42.69407 | 23.42692 | 1746 ft | 14 kts | 257° |
| 2026-05-04 13:04 | 42.69412 | 23.42515 | 1750 ft | 19 kts | 275° |
| 2026-05-04 13:05 | 42.69422 | 23.42335 | 1767 ft | 19 kts | 272° |
| 2026-05-04 13:05 | 42.69432 | 23.42159 | 1756 ft | 19 kts | 273° |
| 2026-05-04 13:05 | 42.69443 | 23.41982 | 1752 ft | 19 kts | 275° |
| 2026-05-04 13:05 | 42.69453 | 23.41805 | 1748 ft | 19 kts | 275° |
| 2026-05-04 13:06 | 42.69464 | 23.41643 | 1755 ft | 2 kts | 275° |